createdAt,value
2018-09-02T00:01:23.950Z,4.90
2018-09-02T00:06:27.511Z,3.83
2018-09-02T00:11:31.154Z,5.13
2018-09-02T00:16:34.773Z,4.87
2018-09-02T00:21:38.318Z,3.50
2018-09-02T00:26:42.121Z,4.87
2018-09-02T00:31:45.659Z,7.93
2018-09-02T00:36:49.254Z,4.33
2018-09-02T00:41:53.092Z,4.07
2018-09-02T00:46:56.636Z,5.00
2018-09-02T00:52:00.349Z,5.67
2018-09-02T00:57:03.923Z,4.43
2018-09-02T01:02:07.795Z,4.03
2018-09-02T01:07:11.541Z,4.00
2018-09-02T01:12:15.146Z,3.60
2018-09-02T01:17:19.481Z,5.07
2018-09-02T01:22:23.049Z,3.50
2018-09-02T01:27:26.561Z,6.07
2018-09-02T01:32:30.090Z,5.63
2018-09-02T01:37:33.838Z,3.90
2018-09-02T01:42:37.460Z,3.97
2018-09-02T01:47:41.212Z,4.40
2018-09-02T01:52:44.941Z,3.83
2018-09-02T01:57:48.784Z,6.10
2018-09-02T02:02:52.349Z,3.43
2018-09-02T02:07:56.543Z,3.77
2018-09-02T02:13:00.073Z,4.27
2018-09-02T02:18:03.625Z,3.17
2018-09-02T02:23:07.649Z,3.40
2018-09-02T02:28:11.161Z,3.97
2018-09-02T02:33:20.983Z,5.43
2018-09-02T02:38:24.591Z,4.57
2018-09-02T02:43:28.716Z,5.20
2018-09-02T02:48:32.812Z,3.23
2018-09-02T02:53:36.309Z,3.50
2018-09-02T02:58:39.874Z,6.27
2018-09-02T03:03:43.459Z,5.73
2018-09-02T03:08:47.004Z,5.43
2018-09-02T03:13:51.174Z,5.57
2018-09-02T03:18:54.706Z,4.27
2018-09-02T03:23:58.181Z,4.47
2018-09-02T03:29:01.996Z,6.43
2018-09-02T03:34:05.524Z,7.50
2018-09-02T03:39:09.334Z,2.93
2018-09-02T03:44:12.842Z,3.90
2018-09-02T03:49:16.542Z,7.30
2018-09-02T03:54:20.078Z,8.37
2018-09-02T03:59:23.647Z,3.77
2018-09-02T04:04:27.425Z,4.93
2018-09-02T04:09:30.957Z,4.93
2018-09-02T04:14:34.472Z,6.77
2018-09-02T04:19:38.314Z,7.07
2018-09-02T04:24:41.919Z,5.67
2018-09-02T04:29:46.277Z,4.97
2018-09-02T04:34:49.791Z,4.20
2018-09-02T04:39:53.801Z,4.33
2018-09-02T04:44:57.350Z,3.70
2018-09-02T04:50:10.243Z,4.37
2018-09-02T04:55:13.845Z,6.27
2018-09-02T05:00:25.301Z,4.87
2018-09-02T05:05:28.886Z,4.27
2018-09-02T05:10:33.268Z,4.77
2018-09-02T05:15:36.774Z,3.80
2018-09-02T05:20:40.418Z,7.47
2018-09-02T05:25:44.791Z,5.10
2018-09-02T05:30:48.415Z,7.17
2018-09-02T05:35:51.965Z,13.33
2018-09-02T05:40:55.741Z,6.40
2018-09-02T05:45:59.203Z,7.27
2018-09-02T05:51:02.716Z,5.70
2018-09-02T05:56:06.694Z,5.90
2018-09-02T06:01:10.269Z,7.60
2018-09-02T06:06:13.854Z,6.63
2018-09-02T06:11:17.334Z,8.77
2018-09-02T06:16:20.897Z,8.90
2018-09-02T06:21:24.645Z,14.67
2018-09-02T06:26:28.176Z,10.20
2018-09-02T06:31:31.686Z,10.87
2018-09-02T06:36:35.240Z,9.47
2018-09-02T06:41:39.405Z,12.00
2018-09-02T06:46:43.023Z,10.20
2018-09-02T06:51:46.656Z,9.00
2018-09-02T06:56:50.394Z,8.90
2018-09-02T07:01:53.942Z,8.18
2018-09-02T07:06:57.733Z,8.77
2018-09-02T07:12:01.625Z,8.83
2018-09-02T07:17:05.390Z,7.73
2018-09-02T07:22:09.013Z,6.90
2018-09-02T07:27:12.559Z,6.73
2018-09-02T07:32:16.061Z,5.37
2018-09-02T07:37:19.695Z,7.53
2018-09-02T07:42:23.158Z,6.17
2018-09-02T07:47:27.039Z,8.30
2018-09-02T07:52:33.968Z,3.87
2018-09-02T07:57:37.535Z,4.23
2018-09-02T08:02:41.991Z,6.20
2018-09-02T08:07:45.638Z,3.33
2018-09-02T08:12:49.641Z,4.67
2018-09-02T08:17:53.297Z,3.80
2018-09-02T08:22:56.836Z,4.97
2018-09-02T08:28:01.436Z,3.23
2018-09-02T08:33:04.975Z,4.27
2018-09-02T08:38:08.821Z,3.07
2018-09-02T08:43:12.316Z,4.67
2018-09-02T08:48:15.997Z,12.73
2018-09-02T08:53:19.467Z,4.60
2018-09-02T08:58:23.048Z,9.90
2018-09-02T09:03:26.584Z,3.00
2018-09-02T09:08:30.856Z,2.80
2018-09-02T09:13:34.870Z,4.63
2018-09-02T09:18:38.914Z,3.27
2018-09-02T09:23:42.423Z,3.27
2018-09-02T09:28:47.082Z,2.47
2018-09-02T09:33:52.648Z,4.57
2018-09-02T09:38:56.252Z,4.87
2018-09-02T09:43:59.840Z,3.30
2018-09-02T09:49:04.046Z,4.30
2018-09-02T09:54:07.562Z,5.67
2018-09-02T09:59:11.874Z,4.40
2018-09-02T10:04:15.492Z,5.00
2018-09-02T10:09:19.138Z,5.00
2018-09-02T10:14:22.608Z,4.07
2018-09-02T10:19:26.976Z,3.40
2018-09-02T10:24:30.509Z,2.87
2018-09-02T10:29:34.209Z,3.43
2018-09-02T10:34:37.733Z,3.13
2018-09-02T10:39:41.353Z,6.57
2018-09-02T10:44:44.949Z,4.37
2018-09-02T10:49:48.783Z,2.57
2018-09-02T10:54:52.425Z,3.37
2018-09-02T10:59:55.975Z,4.30
2018-09-02T11:05:00.202Z,4.13
2018-09-02T11:10:04.946Z,4.20
2018-09-02T11:15:08.883Z,2.87
2018-09-02T11:20:12.463Z,5.37
2018-09-02T11:25:17.000Z,4.23
2018-09-02T11:30:33.281Z,3.20
2018-09-02T11:35:37.055Z,3.63
2018-09-02T11:40:40.822Z,2.57
2018-09-02T11:45:45.222Z,3.87
2018-09-02T11:50:48.862Z,5.73
2018-09-02T11:55:52.401Z,3.67
2018-09-02T12:00:56.254Z,3.43
2018-09-02T12:05:59.797Z,3.30
2018-09-02T12:11:03.378Z,2.63
2018-09-02T12:16:07.205Z,4.77
2018-09-02T12:21:10.729Z,3.53
2018-09-02T12:26:14.262Z,3.70
2018-09-02T12:31:17.819Z,4.83
2018-09-02T12:36:21.805Z,3.80
2018-09-02T12:41:25.832Z,2.40
2018-09-02T12:46:29.622Z,2.93
2018-09-02T12:51:33.220Z,4.63
2018-09-02T12:56:36.805Z,3.43
2018-09-02T13:01:40.599Z,3.40
2018-09-02T13:06:45.576Z,2.90
2018-09-02T13:11:49.114Z,2.87
2018-09-02T13:16:53.331Z,2.17
2018-09-02T13:21:57.465Z,2.90
2018-09-02T13:27:01.193Z,2.97
2018-09-02T13:32:06.052Z,2.87
2018-09-02T13:37:09.610Z,1.93
2018-09-02T13:42:13.905Z,4.00
2018-09-02T13:47:17.536Z,2.57
2018-09-02T13:52:21.141Z,5.10
2018-09-02T13:57:25.400Z,2.63
2018-09-02T14:02:29.126Z,3.10
2018-09-02T14:07:32.841Z,2.63
2018-09-02T14:12:36.546Z,2.67
2018-09-02T14:17:40.229Z,2.93
2018-09-02T14:22:44.035Z,2.20
2018-09-02T14:27:48.173Z,2.57
2018-09-02T14:32:51.774Z,2.97
2018-09-02T14:38:00.109Z,3.03
2018-09-02T14:43:03.946Z,2.60
2018-09-02T14:48:07.644Z,4.30
2018-09-02T14:53:11.480Z,2.23
2018-09-02T14:58:15.099Z,2.70
2018-09-02T15:03:18.641Z,2.00
2018-09-02T15:08:22.413Z,3.53
2018-09-02T15:13:26.079Z,2.20
2018-09-02T15:18:30.729Z,2.17
2018-09-02T15:23:34.558Z,4.03
2018-09-02T15:28:38.153Z,2.47
2018-09-02T15:33:41.764Z,2.80
2018-09-02T15:38:45.743Z,1.90
2018-09-02T15:43:49.495Z,3.03
2018-09-02T15:48:53.158Z,3.17
2018-09-02T15:53:56.702Z,3.03
2018-09-02T15:59:00.205Z,2.93
2018-09-02T16:04:03.990Z,2.70
2018-09-02T16:09:09.682Z,2.03
2018-09-02T16:14:13.556Z,2.37
2018-09-02T16:19:17.116Z,3.10
2018-09-02T16:24:21.289Z,2.13
2018-09-02T16:29:24.864Z,2.97
2018-09-02T16:34:28.413Z,4.27
2018-09-02T16:39:32.785Z,4.53
2018-09-02T16:44:36.330Z,3.57
2018-09-02T16:49:40.876Z,2.83
2018-09-02T16:54:44.492Z,3.87
2018-09-02T16:59:48.026Z,4.73
2018-09-02T17:04:54.080Z,4.23
2018-09-02T17:09:57.677Z,3.57
2018-09-02T17:15:01.236Z,2.80
2018-09-02T17:20:05.072Z,4.73
2018-09-02T17:25:09.035Z,2.63
2018-09-02T17:30:13.669Z,2.43
2018-09-02T17:35:17.187Z,2.60
2018-09-02T17:40:20.699Z,3.23
2018-09-02T17:45:36.154Z,3.37
2018-09-02T17:50:40.505Z,3.00
2018-09-02T17:55:44.289Z,2.90
2018-09-02T18:00:50.745Z,4.00
2018-09-02T18:05:54.463Z,5.37
2018-09-02T18:10:58.273Z,3.63
2018-09-02T18:16:02.134Z,3.50
2018-09-02T18:21:06.347Z,3.67
2018-09-02T18:26:09.909Z,4.10
2018-09-02T18:31:13.615Z,4.53
2018-09-02T18:36:17.254Z,4.37
2018-09-02T18:41:21.302Z,5.07
2018-09-02T18:46:25.240Z,3.77
2018-09-02T18:51:28.717Z,4.33
2018-09-02T18:56:32.249Z,3.60
2018-09-02T19:01:36.731Z,2.80
2018-09-02T19:06:40.791Z,3.20
2018-09-02T19:11:44.295Z,4.23
2018-09-02T19:16:47.798Z,3.70
2018-09-02T19:21:51.299Z,3.20
2018-09-02T19:26:54.951Z,2.73
2018-09-02T19:31:59.011Z,3.23
2018-09-02T19:37:03.307Z,3.40
2018-09-02T19:42:07.022Z,3.93
2018-09-02T19:47:10.800Z,3.90
2018-09-02T19:52:14.510Z,4.93
2018-09-02T19:57:19.610Z,4.30
2018-09-02T20:02:23.088Z,2.70
2018-09-02T20:07:26.944Z,5.57
2018-09-02T20:12:30.666Z,3.67
2018-09-02T20:17:34.483Z,5.03
2018-09-02T20:22:38.607Z,4.00
2018-09-02T20:27:42.226Z,5.63
2018-09-02T20:32:45.970Z,4.30
2018-09-02T20:37:49.510Z,3.60
2018-09-02T20:42:53.832Z,4.80
2018-09-02T20:47:58.000Z,4.57
2018-09-02T20:53:04.934Z,4.20
2018-09-02T20:58:08.837Z,4.97
2018-09-02T21:03:12.273Z,3.47
2018-09-02T21:08:16.163Z,4.87
2018-09-02T21:13:19.844Z,4.53
2018-09-02T21:18:23.474Z,4.33
2018-09-02T21:23:27.205Z,5.23
2018-09-02T21:28:30.836Z,3.53
2018-09-02T21:33:34.303Z,4.60
2018-09-02T21:38:37.858Z,7.40
2018-09-02T21:43:41.397Z,6.80
2018-09-02T21:48:45.300Z,6.33
2018-09-02T21:53:49.021Z,4.87
2018-09-02T21:58:52.555Z,4.03
2018-09-02T22:03:56.300Z,4.83
2018-09-02T22:09:00.249Z,3.87
2018-09-02T22:14:03.880Z,6.03
2018-09-02T22:19:07.692Z,3.60
2018-09-02T22:24:11.204Z,5.70
2018-09-02T22:29:14.790Z,6.40
2018-09-02T22:34:18.243Z,4.70
2018-09-02T22:39:22.497Z,5.50
2018-09-02T22:44:25.959Z,4.77
2018-09-02T22:49:29.734Z,5.17
2018-09-02T22:54:33.348Z,7.47
2018-09-02T22:59:36.892Z,4.77
2018-09-02T23:04:40.584Z,5.03
2018-09-02T23:09:44.708Z,5.93
2018-09-02T23:14:48.673Z,4.87
2018-09-02T23:19:52.585Z,5.57
2018-09-02T23:24:56.704Z,4.83
2018-09-02T23:30:00.249Z,4.67
2018-09-02T23:35:03.845Z,4.63
2018-09-02T23:40:07.423Z,4.80
2018-09-02T23:45:10.937Z,5.43
2018-09-02T23:50:15.156Z,4.57
2018-09-02T23:55:18.889Z,5.53
